createdAt,value
2017-11-29T00:00:38.760Z,4.90
2017-11-29T00:03:06.248Z,3.58
2017-11-29T00:05:33.772Z,4.82
2017-11-29T00:08:01.272Z,4.28
2017-11-29T00:10:28.789Z,6.32
2017-11-29T00:12:56.314Z,4.65
2017-11-29T00:15:24.223Z,3.87
2017-11-29T00:17:51.986Z,5.03
2017-11-29T00:20:19.481Z,4.30
2017-11-29T00:22:46.964Z,5.00
2017-11-29T00:25:14.515Z,5.62
2017-11-29T00:27:42.420Z,4.35
2017-11-29T00:30:09.956Z,4.72
2017-11-29T00:32:39.452Z,4.22
2017-11-29T00:35:07.388Z,4.00
2017-11-29T00:37:34.913Z,4.55
2017-11-29T00:40:02.402Z,4.50
2017-11-29T00:42:32.009Z,4.45
2017-11-29T00:44:59.530Z,4.37
2017-11-29T00:47:27.221Z,3.92
2017-11-29T00:49:54.774Z,4.65
2017-11-29T00:52:22.284Z,4.10
2017-11-29T00:54:49.806Z,4.80
2017-11-29T00:57:17.317Z,4.22
2017-11-29T00:59:45.771Z,4.35
2017-11-29T01:02:13.685Z,4.30
2017-11-29T01:04:41.175Z,4.97
2017-11-29T01:07:08.677Z,4.57
2017-11-29T01:09:36.166Z,3.97
2017-11-29T01:12:04.741Z,3.87
2017-11-29T01:14:32.245Z,4.72
2017-11-29T01:17:00.161Z,4.78
2017-11-29T01:19:27.675Z,6.07
2017-11-29T01:21:56.127Z,6.05
2017-11-29T01:24:23.667Z,6.55
2017-11-29T01:26:51.157Z,6.82
2017-11-29T01:29:18.667Z,5.85
2017-11-29T01:31:46.162Z,5.40
2017-11-29T01:34:13.669Z,4.85
2017-11-29T01:36:42.058Z,5.57
2017-11-29T01:39:09.557Z,5.30
2017-11-29T01:41:37.046Z,5.35
2017-11-29T01:44:04.929Z,6.03
2017-11-29T01:46:32.470Z,5.15
2017-11-29T01:49:00.344Z,5.68
2017-11-29T01:51:27.858Z,6.35
2017-11-29T01:53:55.350Z,5.10
2017-11-29T01:56:23.324Z,6.80
2017-11-29T01:58:51.224Z,6.97
2017-11-29T02:01:18.729Z,5.30
2017-11-29T02:03:48.183Z,7.75
2017-11-29T02:06:26.774Z,5.85
2017-11-29T02:08:54.689Z,8.63
2017-11-29T02:11:22.177Z,8.38
2017-11-29T02:13:49.683Z,6.30
2017-11-29T02:16:17.155Z,6.87
2017-11-29T02:18:44.653Z,6.35
2017-11-29T02:21:12.141Z,7.10
2017-11-29T02:23:39.631Z,8.07
2017-11-29T02:26:07.143Z,6.35
2017-11-29T02:28:35.011Z,8.50
2017-11-29T02:31:02.935Z,7.72
2017-11-29T02:33:31.107Z,7.07
2017-11-29T02:35:58.632Z,7.32
2017-11-29T02:38:26.105Z,8.57
2017-11-29T02:41:05.473Z,7.75
2017-11-29T02:43:32.960Z,8.95
2017-11-29T02:46:00.842Z,7.62
2017-11-29T02:48:28.372Z,8.32
2017-11-29T02:50:56.792Z,6.50
2017-11-29T02:53:24.282Z,6.57
2017-11-29T02:55:51.784Z,8.05
2017-11-29T02:58:19.711Z,7.37
2017-11-29T03:00:47.197Z,7.35
2017-11-29T03:03:14.677Z,6.32
2017-11-29T03:05:42.187Z,5.87
2017-11-29T03:08:09.672Z,6.62
2017-11-29T03:10:37.169Z,6.55
2017-11-29T03:13:04.664Z,6.45
2017-11-29T03:15:32.210Z,7.70
2017-11-29T03:17:59.695Z,6.30
2017-11-29T03:20:29.125Z,6.82
2017-11-29T03:22:57.947Z,5.85
2017-11-29T03:25:25.477Z,6.47
2017-11-29T03:27:52.997Z,6.75
2017-11-29T03:30:20.493Z,8.10
2017-11-29T03:32:48.828Z,6.90
2017-11-29T03:35:16.304Z,7.25
2017-11-29T03:37:43.798Z,8.68
2017-11-29T03:40:12.102Z,7.50
2017-11-29T03:42:39.605Z,7.87
2017-11-29T03:45:07.493Z,7.95
2017-11-29T03:47:34.985Z,7.75
2017-11-29T03:50:02.508Z,7.72
2017-11-29T03:52:29.985Z,7.43
2017-11-29T03:54:57.480Z,7.70
2017-11-29T03:57:24.956Z,6.37
2017-11-29T03:59:52.444Z,8.13
2017-11-29T04:02:19.925Z,7.18
2017-11-29T04:04:47.413Z,6.90
2017-11-29T04:07:15.841Z,7.05
2017-11-29T04:09:43.368Z,7.40
2017-11-29T04:12:11.828Z,6.97
2017-11-29T04:14:39.303Z,7.62
2017-11-29T04:17:08.726Z,8.00
2017-11-29T04:19:36.616Z,6.37
2017-11-29T04:22:04.173Z,7.22
2017-11-29T04:24:31.683Z,7.12
2017-11-29T04:26:59.163Z,8.30
2017-11-29T04:29:27.085Z,7.43
2017-11-29T04:31:54.573Z,7.97
2017-11-29T04:34:22.087Z,6.62
2017-11-29T04:36:50.473Z,8.15
2017-11-29T04:39:24.196Z,7.00
2017-11-29T04:41:51.707Z,9.07
2017-11-29T04:44:19.225Z,7.70
2017-11-29T04:46:46.754Z,7.07
2017-11-29T04:49:14.236Z,8.63
2017-11-29T04:51:41.729Z,7.28
2017-11-29T04:54:09.220Z,7.68
2017-11-29T04:56:36.709Z,6.50
2017-11-29T04:59:04.192Z,7.45
2017-11-29T05:01:32.101Z,6.45
2017-11-29T05:03:59.638Z,6.85
2017-11-29T05:06:27.110Z,6.47
2017-11-29T05:08:55.019Z,5.15
2017-11-29T05:11:22.495Z,6.22
2017-11-29T05:13:50.405Z,9.52
2017-11-29T05:16:17.876Z,5.70
2017-11-29T05:18:45.425Z,5.93
2017-11-29T05:21:12.914Z,5.85
2017-11-29T05:23:40.440Z,7.70
2017-11-29T05:26:07.962Z,7.32
2017-11-29T05:28:35.837Z,7.25
2017-11-29T05:31:03.779Z,5.78
2017-11-29T05:33:31.263Z,7.00
2017-11-29T05:35:58.774Z,6.43
2017-11-29T05:38:26.254Z,5.85
2017-11-29T05:40:54.688Z,7.43
2017-11-29T05:43:22.189Z,7.03
2017-11-29T05:45:49.663Z,7.28
2017-11-29T05:48:17.572Z,7.05
2017-11-29T05:50:46.029Z,6.45
2017-11-29T05:53:13.546Z,6.57
2017-11-29T05:55:41.012Z,7.22
2017-11-29T05:58:08.512Z,7.35
2017-11-29T06:00:36.014Z,6.28
2017-11-29T06:03:03.508Z,7.57
2017-11-29T06:05:31.428Z,7.95
2017-11-29T06:07:58.915Z,7.40
2017-11-29T06:10:26.805Z,7.47
2017-11-29T06:12:54.695Z,8.90
2017-11-29T06:15:22.187Z,7.72
2017-11-29T06:17:49.684Z,7.65
2017-11-29T06:20:17.567Z,6.70
2017-11-29T06:22:45.090Z,7.28
2017-11-29T06:25:12.574Z,7.40
2017-11-29T06:27:40.090Z,6.93
2017-11-29T06:30:07.585Z,10.00
2017-11-29T06:32:35.462Z,7.85
2017-11-29T06:35:03.000Z,9.30
2017-11-29T06:37:30.903Z,8.93
2017-11-29T06:39:58.424Z,10.20
2017-11-29T06:42:26.313Z,8.93
2017-11-29T06:44:53.797Z,7.97
2017-11-29T06:47:21.281Z,8.23
2017-11-29T06:49:48.764Z,8.52
2017-11-29T06:52:18.569Z,7.70
2017-11-29T06:54:46.046Z,8.15
2017-11-29T06:57:13.940Z,8.10
2017-11-29T06:59:41.420Z,8.38
2017-11-29T07:02:13.569Z,7.60
2017-11-29T07:04:41.069Z,8.02
2017-11-29T07:07:08.565Z,8.73
2017-11-29T07:09:36.066Z,7.18
2017-11-29T07:12:03.557Z,6.65
2017-11-29T07:14:31.462Z,7.80
2017-11-29T07:16:58.956Z,7.97
2017-11-29T07:19:26.484Z,7.87
2017-11-29T07:21:53.970Z,8.80
2017-11-29T07:24:21.449Z,7.25
2017-11-29T07:26:48.940Z,8.25
2017-11-29T07:29:16.453Z,8.10
2017-11-29T07:31:43.980Z,8.25
2017-11-29T07:34:11.476Z,10.80
2017-11-29T07:36:39.383Z,8.68
2017-11-29T07:39:06.901Z,7.97
2017-11-29T07:41:34.382Z,8.55
2017-11-29T07:44:02.725Z,8.88
2017-11-29T07:46:30.229Z,9.77
2017-11-29T07:48:58.130Z,8.48
2017-11-29T07:51:25.640Z,10.25
2017-11-29T07:53:53.549Z,8.85
2017-11-29T07:56:21.034Z,9.15
2017-11-29T07:58:48.549Z,8.85
2017-11-29T08:01:16.053Z,9.52
2017-11-29T08:03:43.582Z,7.37
2017-11-29T08:06:16.462Z,8.35
2017-11-29T08:08:45.905Z,10.38
2017-11-29T08:11:13.405Z,9.85
2017-11-29T08:13:40.911Z,9.32
2017-11-29T08:16:08.420Z,10.07
2017-11-29T08:18:35.914Z,9.18
2017-11-29T08:21:03.423Z,8.93
2017-11-29T08:23:31.328Z,10.07
2017-11-29T08:25:59.806Z,10.27
2017-11-29T08:28:27.296Z,10.25
2017-11-29T08:30:54.800Z,10.02
2017-11-29T08:33:22.317Z,10.18
2017-11-29T08:35:49.853Z,10.77
2017-11-29T08:38:17.370Z,8.75
2017-11-29T08:40:45.265Z,9.43
2017-11-29T08:43:12.757Z,10.07
2017-11-29T08:45:42.213Z,7.65
2017-11-29T08:48:09.704Z,9.75
2017-11-29T08:50:37.212Z,8.93
2017-11-29T08:53:06.036Z,9.85
2017-11-29T08:55:33.825Z,9.65
2017-11-29T08:58:01.356Z,9.07
2017-11-29T09:00:28.847Z,8.93
2017-11-29T09:02:56.372Z,9.32
2017-11-29T09:05:23.874Z,10.90
2017-11-29T09:07:51.406Z,8.95
2017-11-29T09:10:18.916Z,9.07
2017-11-29T09:12:46.812Z,9.05
2017-11-29T09:15:14.299Z,10.55
2017-11-29T09:17:41.832Z,8.88
2017-11-29T09:20:09.323Z,9.45
2017-11-29T09:22:36.843Z,8.48
2017-11-29T09:25:04.366Z,9.88
2017-11-29T09:27:32.248Z,9.70
2017-11-29T09:30:00.125Z,10.65
2017-11-29T09:32:27.641Z,8.23
2017-11-29T09:34:55.120Z,9.63
2017-11-29T09:37:23.007Z,8.50
2017-11-29T09:39:50.497Z,10.50
2017-11-29T09:42:17.993Z,8.75
2017-11-29T09:44:45.903Z,9.98
2017-11-29T09:47:13.409Z,7.70
2017-11-29T09:49:40.930Z,8.32
2017-11-29T09:52:09.384Z,8.00
2017-11-29T09:54:36.969Z,7.75
2017-11-29T09:57:04.485Z,5.95
2017-11-29T09:59:32.359Z,8.15
2017-11-29T10:02:00.271Z,7.37
2017-11-29T10:04:27.807Z,7.78
2017-11-29T10:06:55.344Z,7.85
2017-11-29T10:09:24.359Z,7.68
2017-11-29T10:11:51.848Z,7.72
2017-11-29T10:14:19.356Z,6.93
2017-11-29T10:16:46.862Z,6.15
2017-11-29T10:19:14.353Z,6.70
2017-11-29T10:21:41.868Z,7.97
2017-11-29T10:24:09.364Z,6.97
2017-11-29T10:26:36.875Z,7.82
2017-11-29T10:29:08.861Z,7.57
2017-11-29T10:31:36.378Z,6.40
2017-11-29T10:34:03.878Z,8.48
2017-11-29T10:36:31.387Z,7.60
2017-11-29T10:38:58.881Z,8.63
2017-11-29T10:41:26.396Z,8.35
2017-11-29T10:43:54.307Z,6.87
2017-11-29T10:46:21.786Z,6.70
2017-11-29T10:48:49.308Z,6.87
2017-11-29T10:51:17.817Z,7.85
2017-11-29T10:53:46.234Z,6.65
2017-11-29T10:56:14.128Z,7.57
2017-11-29T10:58:41.616Z,6.85
2017-11-29T11:01:09.127Z,7.82
2017-11-29T11:03:37.000Z,6.53
2017-11-29T11:06:06.811Z,6.05
2017-11-29T11:08:34.312Z,7.22
2017-11-29T11:11:01.791Z,7.65
2017-11-29T11:13:29.324Z,8.25
2017-11-29T11:15:57.760Z,6.70
2017-11-29T11:18:25.636Z,5.87
2017-11-29T11:20:53.536Z,6.35
2017-11-29T11:23:21.039Z,6.75
2017-11-29T11:25:48.948Z,6.75
2017-11-29T11:28:16.433Z,8.07
2017-11-29T11:30:43.970Z,5.07
2017-11-29T11:33:11.456Z,6.03
2017-11-29T11:38:29.357Z,6.70
2017-11-29T11:41:09.386Z,5.90
2017-11-29T11:43:48.528Z,7.15
2017-11-29T11:46:29.126Z,6.37
2017-11-29T11:49:07.316Z,4.93
2017-11-29T11:51:49.476Z,4.78
2017-11-29T11:54:28.915Z,6.62
2017-11-29T11:57:07.082Z,6.32
2017-11-29T12:02:24.675Z,6.45
2017-11-29T12:04:54.142Z,6.68
2017-11-29T12:07:21.687Z,6.10
2017-11-29T12:09:49.192Z,5.87
2017-11-29T12:12:16.670Z,5.00
2017-11-29T12:14:44.587Z,5.10
2017-11-29T12:17:12.130Z,7.15
2017-11-29T12:19:39.654Z,5.82
2017-11-29T12:22:07.551Z,5.47
2017-11-29T12:24:35.056Z,5.60
2017-11-29T12:27:02.528Z,5.18
2017-11-29T12:29:30.438Z,6.18
2017-11-29T12:31:57.961Z,5.75
2017-11-29T12:34:25.493Z,5.30
2017-11-29T12:36:52.969Z,5.80
2017-11-29T12:39:20.449Z,6.62
2017-11-29T12:41:48.351Z,5.55
2017-11-29T12:44:16.839Z,5.80
2017-11-29T12:46:44.341Z,5.20
2017-11-29T12:49:24.287Z,4.10
2017-11-29T12:54:26.101Z,5.00
2017-11-29T12:56:53.571Z,4.07
2017-11-29T12:59:23.150Z,4.15
2017-11-29T13:01:50.647Z,4.15
2017-11-29T13:04:18.141Z,4.72
2017-11-29T13:06:46.043Z,3.50
2017-11-29T13:09:13.565Z,4.60
2017-11-29T13:11:41.463Z,4.45
2017-11-29T13:14:08.942Z,4.18
2017-11-29T13:16:36.432Z,2.90
2017-11-29T13:19:03.905Z,3.65
2017-11-29T13:21:31.425Z,3.28
2017-11-29T13:23:59.860Z,3.28
2017-11-29T13:26:27.788Z,3.33
2017-11-29T13:28:55.274Z,2.58
2017-11-29T13:31:23.180Z,3.00
2017-11-29T13:33:50.677Z,3.10
2017-11-29T13:36:18.156Z,2.42
2017-11-29T13:38:46.073Z,2.20
2017-11-29T13:41:13.556Z,3.30
2017-11-29T13:43:41.049Z,2.80
2017-11-29T13:46:08.929Z,2.70
2017-11-29T13:48:36.828Z,1.92
2017-11-29T13:51:04.321Z,2.83
2017-11-29T13:53:31.870Z,2.17
2017-11-29T13:55:59.386Z,2.37
2017-11-29T13:58:29.191Z,2.80
2017-11-29T14:00:56.689Z,3.40
2017-11-29T14:03:24.157Z,3.28
2017-11-29T14:05:51.685Z,2.33
2017-11-29T14:08:19.209Z,2.92
2017-11-29T14:10:47.649Z,2.55
2017-11-29T14:13:16.080Z,3.65
2017-11-29T14:15:45.399Z,3.20
2017-11-29T14:18:12.973Z,3.08
2017-11-29T14:20:47.484Z,2.58
2017-11-29T14:23:14.996Z,3.00
2017-11-29T14:25:42.878Z,3.85
2017-11-29T14:28:10.396Z,3.50
2017-11-29T14:30:38.116Z,2.83
2017-11-29T14:33:05.619Z,3.58
2017-11-29T14:35:34.158Z,3.58
2017-11-29T14:38:01.650Z,2.95
2017-11-29T14:40:29.143Z,3.92
2017-11-29T14:42:57.024Z,3.90
2017-11-29T14:45:26.966Z,2.80
2017-11-29T14:47:54.511Z,2.95
2017-11-29T14:50:22.679Z,3.30
2017-11-29T14:52:50.189Z,3.00
2017-11-29T14:55:18.585Z,3.78
2017-11-29T14:57:47.419Z,2.35
2017-11-29T15:00:14.935Z,2.90
2017-11-29T15:02:44.384Z,2.90
2017-11-29T15:05:11.951Z,3.33
2017-11-29T15:07:40.365Z,2.67
2017-11-29T15:10:07.950Z,2.92
2017-11-29T15:12:35.876Z,3.00
2017-11-29T15:15:03.405Z,3.55
2017-11-29T15:17:30.919Z,3.45
2017-11-29T15:19:58.831Z,3.35
2017-11-29T15:22:27.109Z,3.03
2017-11-29T15:24:55.079Z,3.70
2017-11-29T15:27:23.791Z,2.80
2017-11-29T15:29:51.300Z,3.40
2017-11-29T15:32:20.783Z,3.47
2017-11-29T15:34:48.268Z,4.12
2017-11-29T15:37:16.777Z,3.10
2017-11-29T15:39:48.068Z,3.65
2017-11-29T15:42:15.588Z,3.58
2017-11-29T15:44:43.547Z,3.95
2017-11-29T15:47:11.276Z,3.42
2017-11-29T15:49:38.812Z,2.40
2017-11-29T15:52:08.372Z,2.80
2017-11-29T15:54:35.900Z,3.47
2017-11-29T15:57:03.810Z,3.22
2017-11-29T15:59:33.133Z,3.53
2017-11-29T16:02:03.375Z,4.05
2017-11-29T16:04:31.718Z,3.37
2017-11-29T16:06:59.241Z,3.45
2017-11-29T16:09:27.845Z,3.10
2017-11-29T16:11:55.876Z,2.83
2017-11-29T16:14:24.541Z,3.92
2017-11-29T16:16:53.128Z,3.78
2017-11-29T16:19:23.655Z,4.00
2017-11-29T16:21:52.162Z,3.83
2017-11-29T16:24:20.045Z,3.28
2017-11-29T16:26:48.074Z,3.87
2017-11-29T16:29:15.614Z,2.95
2017-11-29T16:31:43.157Z,4.07
2017-11-29T16:34:10.709Z,2.92
2017-11-29T16:36:38.215Z,2.75
2017-11-29T16:39:06.816Z,3.12
2017-11-29T16:41:35.917Z,3.37
2017-11-29T16:44:04.369Z,3.55
2017-11-29T16:46:32.192Z,2.95
2017-11-29T16:49:00.580Z,2.70
2017-11-29T16:51:29.052Z,2.95
2017-11-29T16:53:57.758Z,5.07
2017-11-29T16:56:27.531Z,3.33
2017-11-29T16:58:55.980Z,2.83
2017-11-29T17:01:23.525Z,3.35
2017-11-29T17:03:51.078Z,3.42
2017-11-29T17:06:20.359Z,3.55
2017-11-29T17:08:49.202Z,4.10
2017-11-29T17:11:17.239Z,3.40
2017-11-29T17:13:44.729Z,2.72
2017-11-29T17:16:12.639Z,3.37
2017-11-29T17:18:41.057Z,3.35
2017-11-29T17:21:08.587Z,4.10
2017-11-29T17:23:36.097Z,3.58
2017-11-29T17:26:03.982Z,3.37
2017-11-29T17:28:31.509Z,4.07
2017-11-29T17:30:58.975Z,3.45
2017-11-29T17:33:26.518Z,4.03
2017-11-29T17:35:53.982Z,3.58
2017-11-29T17:38:21.507Z,3.33
2017-11-29T17:40:49.014Z,3.35
2017-11-29T17:43:20.675Z,3.65
2017-11-29T17:45:48.853Z,3.70
2017-11-29T17:48:16.337Z,4.70
2017-11-29T17:50:43.873Z,3.75
2017-11-29T17:53:12.515Z,3.47
2017-11-29T17:55:40.010Z,3.95
2017-11-29T17:58:07.562Z,3.47
2017-11-29T18:00:35.525Z,3.70
2017-11-29T18:03:03.457Z,3.85
2017-11-29T18:05:33.972Z,28.40
2017-11-29T18:08:01.504Z,12.50
2017-11-29T18:10:29.015Z,5.10
2017-11-29T18:12:58.469Z,4.65
2017-11-29T18:15:26.907Z,4.12
2017-11-29T18:17:56.432Z,3.92
2017-11-29T18:20:24.358Z,4.47
2017-11-29T18:22:51.861Z,7.65
2017-11-29T18:25:19.765Z,9.82
2017-11-29T18:27:47.289Z,9.77
2017-11-29T18:30:15.228Z,5.53
2017-11-29T18:32:49.261Z,4.55
2017-11-29T18:35:20.330Z,5.20
2017-11-29T18:37:47.919Z,6.37
2017-11-29T18:40:15.420Z,5.07
2017-11-29T18:42:44.232Z,5.12
2017-11-29T18:45:11.720Z,4.97
2017-11-29T18:47:39.228Z,4.80
2017-11-29T18:50:07.120Z,3.95
2017-11-29T18:52:34.709Z,4.95
2017-11-29T18:55:02.209Z,4.90
2017-11-29T18:57:30.084Z,5.07
2017-11-29T18:59:57.993Z,4.82
2017-11-29T19:02:25.495Z,5.30
2017-11-29T19:04:53.442Z,4.53
2017-11-29T19:07:20.967Z,3.95
2017-11-29T19:09:49.614Z,4.87
2017-11-29T19:12:17.861Z,5.65
2017-11-29T19:14:45.362Z,4.50
2017-11-29T19:17:13.231Z,4.87
2017-11-29T19:19:41.108Z,4.43
2017-11-29T19:22:08.993Z,4.05
2017-11-29T19:24:36.523Z,4.22
2017-11-29T19:27:05.479Z,4.20
2017-11-29T19:29:33.018Z,3.97
2017-11-29T19:32:00.600Z,5.37
2017-11-29T19:34:28.116Z,5.18
2017-11-29T19:36:55.637Z,4.47
2017-11-29T19:39:23.559Z,4.95
2017-11-29T19:41:51.075Z,4.72
2017-11-29T19:44:19.003Z,5.22
2017-11-29T19:46:46.496Z,5.20
2017-11-29T19:49:14.413Z,5.40
2017-11-29T19:51:41.934Z,6.07
2017-11-29T19:54:09.449Z,6.45
2017-11-29T19:56:37.003Z,5.20
2017-11-29T19:59:04.520Z,5.55
2017-11-29T20:01:32.023Z,6.70
2017-11-29T20:03:59.577Z,5.62
2017-11-29T20:06:27.076Z,6.25
2017-11-29T20:08:55.895Z,5.45
2017-11-29T20:11:23.408Z,6.15
2017-11-29T20:13:51.344Z,7.68
2017-11-29T20:16:19.489Z,6.15
2017-11-29T20:18:47.025Z,5.15
2017-11-29T20:21:14.901Z,6.20
2017-11-29T20:23:42.443Z,6.60
2017-11-29T20:26:11.298Z,5.55
2017-11-29T20:28:38.803Z,6.68
2017-11-29T20:31:06.708Z,6.30
2017-11-29T20:33:36.168Z,6.30
2017-11-29T20:36:04.086Z,6.25
2017-11-29T20:38:32.657Z,6.95
2017-11-29T20:41:00.199Z,6.10
2017-11-29T20:43:27.817Z,6.65
2017-11-29T20:45:56.221Z,6.32
2017-11-29T20:48:23.776Z,5.40
2017-11-29T20:50:51.677Z,7.07
2017-11-29T20:53:19.184Z,6.50
2017-11-29T20:55:46.718Z,5.35
2017-11-29T20:58:14.222Z,8.05
2017-11-29T21:00:42.108Z,8.38
2017-11-29T21:03:09.655Z,5.95
2017-11-29T21:05:39.201Z,6.70
2017-11-29T21:08:06.712Z,7.85
2017-11-29T21:10:34.654Z,7.10
2017-11-29T21:13:02.170Z,7.10
2017-11-29T21:15:29.692Z,5.75
2017-11-29T21:17:57.577Z,7.68
2017-11-29T21:20:25.077Z,6.62
2017-11-29T21:22:52.675Z,7.28
2017-11-29T21:25:20.576Z,5.75
2017-11-29T21:27:48.164Z,7.25
2017-11-29T21:30:16.076Z,6.55
2017-11-29T21:32:44.012Z,6.60
2017-11-29T21:35:11.632Z,5.65
2017-11-29T21:37:39.182Z,6.10
2017-11-29T21:40:07.621Z,5.62
2017-11-29T21:42:35.142Z,6.53
2017-11-29T21:45:02.645Z,7.00
2017-11-29T21:47:30.696Z,7.10
2017-11-29T21:49:59.165Z,7.00
2017-11-29T21:52:26.676Z,6.95
2017-11-29T21:54:54.564Z,6.12
2017-11-29T21:57:22.073Z,7.50
2017-11-29T21:59:50.520Z,6.90
2017-11-29T22:02:18.056Z,7.20
2017-11-29T22:04:45.577Z,6.65
2017-11-29T22:07:13.470Z,6.22
2017-11-29T22:09:41.364Z,6.87
2017-11-29T22:12:08.879Z,7.20
2017-11-29T22:14:36.789Z,5.32
2017-11-29T22:17:04.372Z,6.32
2017-11-29T22:19:31.937Z,8.55
2017-11-29T22:22:01.411Z,5.82
2017-11-29T22:24:28.904Z,7.25
2017-11-29T22:26:56.435Z,6.57
2017-11-29T22:29:23.943Z,6.90
2017-11-29T22:31:51.852Z,6.03
2017-11-29T22:34:19.755Z,7.70
2017-11-29T22:36:47.273Z,6.53
2017-11-29T22:39:14.799Z,6.05
2017-11-29T22:41:42.698Z,4.80
2017-11-29T22:44:11.136Z,6.00
2017-11-29T22:46:38.651Z,8.10
2017-11-29T22:49:06.194Z,5.43
2017-11-29T22:51:33.755Z,6.43
2017-11-29T22:54:01.278Z,7.50
2017-11-29T22:56:29.204Z,6.37
2017-11-29T22:58:56.706Z,5.87
2017-11-29T23:01:24.644Z,5.40
2017-11-29T23:03:52.180Z,5.70
2017-11-29T23:06:19.680Z,4.65
2017-11-29T23:08:47.197Z,6.47
2017-11-29T23:11:14.717Z,4.22
2017-11-29T23:13:42.611Z,5.72
2017-11-29T23:16:10.137Z,4.93
2017-11-29T23:18:38.112Z,5.75
2017-11-29T23:33:19.035Z,4.65
2017-11-29T23:35:46.554Z,5.53
2017-11-29T23:42:03.400Z,5.37
2017-11-29T23:44:54.698Z,6.50
